sensor_id;sensor_type;location;lat;lon;timestamp;pressure;altitude;pressure_sealevel;temperature;humidity
3444;BME280;1736;52.068;6.968;2023-05-11T00:01:56;100869.75;;;13.96;100.00
3444;BME280;1736;52.068;6.968;2023-05-11T00:04:23;100868.91;;;13.96;100.00
3444;BME280;1736;52.068;6.968;2023-05-11T00:06:50;100870.88;;;13.94;100.00
3444;BME280;1736;52.068;6.968;2023-05-11T00:09:16;100874.22;;;13.96;100.00
3444;BME280;1736;52.068;6.968;2023-05-11T00:11:43;100875.38;;;13.93;100.00
3444;BME280;1736;52.068;6.968;2023-05-11T00:14:11;100867.22;;;13.95;100.00
3444;BME280;1736;52.068;6.968;2023-05-11T00:16:37;100863.28;;;13.99;100.00
3444;BME280;1736;52.068;6.968;2023-05-11T00:19:04;100862.41;;;13.98;100.00
3444;BME280;1736;52.068;6.968;2023-05-11T00:21:31;100856.25;;;13.98;100.00
3444;BME280;1736;52.068;6.968;2023-05-11T00:23:57;100857.94;;;13.99;100.00
3444;BME280;1736;52.068;6.968;2023-05-11T00:26:24;100856.25;;;13.98;100.00
3444;BME280;1736;52.068;6.968;2023-05-11T00:28:51;100859.06;;;13.96;100.00
3444;BME280;1736;52.068;6.968;2023-05-11T00:31:19;100859.63;;;14.00;100.00
3444;BME280;1736;52.068;6.968;2023-05-11T00:33:46;100852.59;;;13.99;100.00
3444;BME280;1736;52.068;6.968;2023-05-11T00:36:12;100850.69;;;13.91;100.00
3444;BME280;1736;52.068;6.968;2023-05-11T00:38:39;100855.00;;;13.92;100.00
3444;BME280;1736;52.068;6.968;2023-05-11T00:41:06;100860.78;;;13.88;100.00
3444;BME280;1736;52.068;6.968;2023-05-11T00:43:33;100847.31;;;13.80;100.00
3444;BME280;1736;52.068;6.968;2023-05-11T00:45:59;100857.31;;;13.78;100.00
3444;BME280;1736;52.068;6.968;2023-05-11T00:48:28;100855.19;;;13.72;100.00
3444;BME280;1736;52.068;6.968;2023-05-11T00:50:55;100843.00;;;13.69;100.00
3444;BME280;1736;52.068;6.968;2023-05-11T00:53:21;100855.78;;;13.66;100.00
3444;BME280;1736;52.068;6.968;2023-05-11T00:55:55;100856.34;;;13.60;100.00
3444;BME280;1736;52.068;6.968;2023-05-11T00:58:21;100852.44;;;13.54;100.00
3444;BME280;1736;52.068;6.968;2023-05-11T01:00:49;100849.63;;;13.56;100.00
3444;BME280;1736;52.068;6.968;2023-05-11T01:03:16;100854.41;;;13.52;100.00
3444;BME280;1736;52.068;6.968;2023-05-11T01:05:48;100856.22;;;13.52;100.00
3444;BME280;1736;52.068;6.968;2023-05-11T01:08:24;100853.56;;;13.52;100.00
3444;BME280;1736;52.068;6.968;2023-05-11T01:11:01;100854.41;;;13.52;100.00
3444;BME280;1736;52.068;6.968;2023-05-11T01:13:33;100850.47;;;13.47;100.00
3444;BME280;1736;52.068;6.968;2023-05-11T01:16:07;100852.47;;;13.45;100.00
3444;BME280;1736;52.068;6.968;2023-05-11T01:18:39;100855.81;;;13.47;100.00
3444;BME280;1736;52.068;6.968;2023-05-11T01:21:09;100858.06;;;13.42;100.00
3444;BME280;1736;52.068;6.968;2023-05-11T01:26:58;100858.94;;;13.42;100.00
3444;BME280;1736;52.068;6.968;2023-05-11T01:29:52;100860.03;;;13.40;100.00
3444;BME280;1736;52.068;6.968;2023-05-11T01:32:27;100852.19;;;13.38;100.00
3444;BME280;1736;52.068;6.968;2023-05-11T01:35:00;100849.34;;;13.40;100.00
3444;BME280;1736;52.068;6.968;2023-05-11T01:37:30;100857.53;;;13.38;100.00
3444;BME280;1736;52.068;6.968;2023-05-11T01:40:00;100857.66;;;13.37;100.00
3444;BME280;1736;52.068;6.968;2023-05-11T01:42:31;100851.06;;;13.41;100.00
3444;BME280;1736;52.068;6.968;2023-05-11T01:45:01;100863.41;;;13.42;100.00
3444;BME280;1736;52.068;6.968;2023-05-11T01:47:30;100855.28;;;13.43;100.00
3444;BME280;1736;52.068;6.968;2023-05-11T01:49:57;100859.47;;;13.46;100.00
3444;BME280;1736;52.068;6.968;2023-05-11T01:52:26;100852.75;;;13.42;100.00
3444;BME280;1736;52.068;6.968;2023-05-11T01:54:56;100860.75;;;13.42;100.00
3444;BME280;1736;52.068;6.968;2023-05-11T01:57:24;100867.75;;;13.43;100.00
3444;BME280;1736;52.068;6.968;2023-05-11T01:59:53;100864.25;;;13.42;100.00
3444;BME280;1736;52.068;6.968;2023-05-11T02:02:24;100872.38;;;13.41;100.00
3444;BME280;1736;52.068;6.968;2023-05-11T02:04:53;100872.09;;;13.44;100.00
3444;BME280;1736;52.068;6.968;2023-05-11T02:07:21;100873.78;;;13.45;100.00
3444;BME280;1736;52.068;6.968;2023-05-11T02:09:50;100869.59;;;13.42;100.00
3444;BME280;1736;52.068;6.968;2023-05-11T02:12:18;100871.41;;;13.42;100.00
3444;BME280;1736;52.068;6.968;2023-05-11T02:14:45;100875.75;;;13.43;100.00
3444;BME280;1736;52.068;6.968;2023-05-11T02:17:14;100873.06;;;13.43;100.00
3444;BME280;1736;52.068;6.968;2023-05-11T02:19:43;100883.19;;;13.39;100.00
3444;BME280;1736;52.068;6.968;2023-05-11T02:22:11;100886.69;;;13.40;100.00
3444;BME280;1736;52.068;6.968;2023-05-11T02:24:39;100879.66;;;13.39;100.00
3444;BME280;1736;52.068;6.968;2023-05-11T02:27:13;100881.34;;;13.40;100.00
3444;BME280;1736;52.068;6.968;2023-05-11T02:29:40;100880.38;;;13.41;100.00
3444;BME280;1736;52.068;6.968;2023-05-11T02:32:08;100887.25;;;13.43;100.00
3444;BME280;1736;52.068;6.968;2023-05-11T02:34:40;100880.25;;;13.42;100.00
3444;BME280;1736;52.068;6.968;2023-05-11T02:37:12;100886.53;;;13.41;100.00
3444;BME280;1736;52.068;6.968;2023-05-11T02:39:40;100885.00;;;13.39;100.00
3444;BME280;1736;52.068;6.968;2023-05-11T02:42:12;100885.00;;;13.39;100.00
3444;BME280;1736;52.068;6.968;2023-05-11T02:44:43;100883.31;;;13.38;100.00
3444;BME280;1736;52.068;6.968;2023-05-11T02:47:11;100882.63;;;13.36;100.00
3444;BME280;1736;52.068;6.968;2023-05-11T02:49:41;100883.75;;;13.33;100.00
3444;BME280;1736;52.068;6.968;2023-05-11T02:52:15;100892.84;;;13.31;100.00
3444;BME280;1736;52.068;6.968;2023-05-11T02:54:44;100889.50;;;13.29;100.00
3444;BME280;1736;52.068;6.968;2023-05-11T02:57:11;100884.19;;;13.29;100.00
3444;BME280;1736;52.068;6.968;2023-05-11T02:59:38;100884.19;;;13.29;100.00
3444;BME280;1736;52.068;6.968;2023-05-11T03:02:05;100892.59;;;13.34;100.00
3444;BME280;1736;52.068;6.968;2023-05-11T03:04:32;100890.91;;;13.33;100.00
3444;BME280;1736;52.068;6.968;2023-05-11T03:06:59;100892.03;;;13.30;100.00
3444;BME280;1736;52.068;6.968;2023-05-11T03:09:27;100891.19;;;13.30;100.00
3444;BME280;1736;52.068;6.968;2023-05-11T03:11:54;100894.53;;;13.32;100.00
3444;BME280;1736;52.068;6.968;2023-05-11T03:14:21;100895.25;;;13.34;100.00
3444;BME280;1736;52.068;6.968;2023-05-11T03:16:55;100884.88;;;13.31;100.00
3444;BME280;1736;52.068;6.968;2023-05-11T03:19:22;100887.41;;;13.32;100.00
3444;BME280;1736;52.068;6.968;2023-05-11T03:21:50;100887.25;;;13.34;100.00
3444;BME280;1736;52.068;6.968;2023-05-11T03:24:17;100887.25;;;13.34;100.00
3444;BME280;1736;52.068;6.968;2023-05-11T03:26:45;100881.78;;;13.35;100.00
3444;BME280;1736;52.068;6.968;2023-05-11T03:29:14;100888.25;;;13.33;100.00
3444;BME280;1736;52.068;6.968;2023-05-11T03:31:42;100879.94;;;13.36;100.00
3444;BME280;1736;52.068;6.968;2023-05-11T03:34:08;100887.25;;;13.34;100.00
3444;BME280;1736;52.068;6.968;2023-05-11T03:36:35;100887.53;;;13.31;100.00
3444;BME280;1736;52.068;6.968;2023-05-11T03:39:04;100883.06;;;13.22;100.00
3444;BME280;1736;52.068;6.968;2023-05-11T03:41:33;100887.25;;;13.15;100.00
3444;BME280;1736;52.068;6.968;2023-05-11T03:44:04;100885.31;;;13.17;100.00
3444;BME280;1736;52.068;6.968;2023-05-11T03:46:34;100888.09;;;13.15;100.00
3444;BME280;1736;52.068;6.968;2023-05-11T03:49:04;100891.75;;;13.05;100.00
3444;BME280;1736;52.068;6.968;2023-05-11T03:51:31;100892.72;;;13.04;100.00
3444;BME280;1736;52.068;6.968;2023-05-11T03:53:59;100888.34;;;13.03;100.00
3444;BME280;1736;52.068;6.968;2023-05-11T03:56:26;100896.78;;;12.98;100.00
3444;BME280;1736;52.068;6.968;2023-05-11T03:58:53;100888.03;;;12.96;100.00
3444;BME280;1736;52.068;6.968;2023-05-11T04:01:21;100887.75;;;12.90;100.00
3444;BME280;1736;52.068;6.968;2023-05-11T04:03:48;100895.88;;;12.88;100.00
3444;BME280;1736;52.068;6.968;2023-05-11T04:06:16;100895.06;;;12.88;100.00
3444;BME280;1736;52.068;6.968;2023-05-11T04:08:43;100890.56;;;12.88;100.00
3444;BME280;1736;52.068;6.968;2023-05-11T04:11:09;100889.16;;;12.94;100.00
3444;BME280;1736;52.068;6.968;2023-05-11T04:13:36;100886.91;;;12.89;100.00
3444;BME280;1736;52.068;6.968;2023-05-11T04:16:03;100882.69;;;12.87;100.00
3444;BME280;1736;52.068;6.968;2023-05-11T04:18:31;100882.28;;;12.91;100.00
3444;BME280;1736;52.068;6.968;2023-05-11T04:20:58;100879.75;;;12.80;100.00
3444;BME280;1736;52.068;6.968;2023-05-11T04:23:24;100884.66;;;12.75;100.00
3444;BME280;1736;52.068;6.968;2023-05-11T04:25:53;100882.84;;;12.76;100.00
3444;BME280;1736;52.068;6.968;2023-05-11T04:28:20;100889.94;;;12.66;100.00
3444;BME280;1736;52.068;6.968;2023-05-11T04:30:51;100895.84;;;12.60;100.00
3444;BME280;1736;52.068;6.968;2023-05-11T04:33:18;100898.03;;;12.55;100.00
3444;BME280;1736;52.068;6.968;2023-05-11T04:35:48;100897.59;;;12.50;100.00
3444;BME280;1736;52.068;6.968;2023-05-11T04:38:15;100896.63;;;12.51;100.00
3444;BME280;1736;52.068;6.968;2023-05-11T04:40:41;100897.72;;;12.48;100.00
3444;BME280;1736;52.068;6.968;2023-05-11T04:43:08;100897.34;;;12.53;100.00
3444;BME280;1736;52.068;6.968;2023-05-11T04:45:35;100900.25;;;12.50;100.00
3444;BME280;1736;52.068;6.968;2023-05-11T04:48:02;100903.34;;;12.55;100.00
3444;BME280;1736;52.068;6.968;2023-05-11T04:50:28;100900.84;;;12.53;100.00
3444;BME280;1736;52.068;6.968;2023-05-11T04:52:56;100897.78;;;12.58;100.00
3444;BME280;1736;52.068;6.968;2023-05-11T04:55:23;100900.31;;;12.59;100.00
3444;BME280;1736;52.068;6.968;2023-05-11T04:57:49;100910.44;;;12.65;100.00
3444;BME280;1736;52.068;6.968;2023-05-11T05:00:17;100907.34;;;12.70;100.00
3444;BME280;1736;52.068;6.968;2023-05-11T05:02:43;100914.06;;;12.74;100.00
3444;BME280;1736;52.068;6.968;2023-05-11T05:05:10;100914.50;;;12.79;100.00
3444;BME280;1736;52.068;6.968;2023-05-11T05:07:37;100912.13;;;12.85;100.00
3444;BME280;1736;52.068;6.968;2023-05-11T05:10:05;100915.78;;;12.94;100.00
3444;BME280;1736;52.068;6.968;2023-05-11T05:12:33;100920.31;;;13.03;100.00
3444;BME280;1736;52.068;6.968;2023-05-11T05:15:00;100925.25;;;13.07;100.00
3444;BME280;1736;52.068;6.968;2023-05-11T05:17:26;100922.88;;;13.14;100.00
3444;BME280;1736;52.068;6.968;2023-05-11T05:19:53;100929.63;;;13.27;100.00
3444;BME280;1736;52.068;6.968;2023-05-11T05:22:19;100928.66;;;13.38;100.00
3444;BME280;1736;52.068;6.968;2023-05-11T05:24:46;100924.28;;;13.46;100.00
3444;BME280;1736;52.068;6.968;2023-05-11T05:27:14;100929.91;;;13.53;100.00
3444;BME280;1736;52.068;6.968;2023-05-11T05:29:40;100932.13;;;13.57;100.00
3444;BME280;1736;52.068;6.968;2023-05-11T05:32:07;100925.53;;;13.61;100.00
3444;BME280;1736;52.068;6.968;2023-05-11T05:34:33;100931.84;;;13.70;100.00
3444;BME280;1736;52.068;6.968;2023-05-11T05:37:00;100933.69;;;13.69;100.00
3444;BME280;1736;52.068;6.968;2023-05-11T05:39:27;100936.44;;;13.96;100.00
3444;BME280;1736;52.068;6.968;2023-05-11T05:41:53;100931.53;;;13.92;100.00
3444;BME280;1736;52.068;6.968;2023-05-11T05:44:21;100939.78;;;13.98;100.00
3444;BME280;1736;52.068;6.968;2023-05-11T05:46:48;100943.28;;;14.18;100.00
3444;BME280;1736;52.068;6.968;2023-05-11T05:49:14;100941.88;;;14.23;100.00
3444;BME280;1736;52.068;6.968;2023-05-11T05:51:41;100948.06;;;14.14;100.00
3444;BME280;1736;52.068;6.968;2023-05-11T05:54:08;100945.19;;;14.44;100.00
3444;BME280;1736;52.068;6.968;2023-05-11T05:56:35;100952.28;;;14.63;100.00
3444;BME280;1736;52.068;6.968;2023-05-11T05:59:02;100947.91;;;14.62;100.00
3444;BME280;1736;52.068;6.968;2023-05-11T06:01:31;100955.03;;;14.44;100.00
3444;BME280;1736;52.068;6.968;2023-05-11T06:03:58;100952.22;;;14.45;100.00
3444;BME280;1736;52.068;6.968;2023-05-11T06:06:26;100957.03;;;14.32;100.00
3444;BME280;1736;52.068;6.968;2023-05-11T06:08:52;100959.28;;;14.18;100.00
3444;BME280;1736;52.068;6.968;2023-05-11T06:11:19;100962.31;;;14.42;100.00
3444;BME280;1736;52.068;6.968;2023-05-11T06:13:46;100964.19;;;14.32;100.00
3444;BME280;1736;52.068;6.968;2023-05-11T06:16:13;100961.25;;;14.62;100.00
3444;BME280;1736;52.068;6.968;2023-05-11T06:18:41;100961.25;;;14.62;100.00
3444;BME280;1736;52.068;6.968;2023-05-11T06:21:08;100957.25;;;15.02;100.00
3444;BME280;1736;52.068;6.968;2023-05-11T06:23:34;100961.13;;;15.17;97.33
3444;BME280;1736;52.068;6.968;2023-05-11T06:26:01;100962.22;;;15.15;97.61
3444;BME280;1736;52.068;6.968;2023-05-11T06:28:28;100967.28;;;15.18;97.29
3444;BME280;1736;52.068;6.968;2023-05-11T06:30:55;100965.53;;;15.09;96.12
3444;BME280;1736;52.068;6.968;2023-05-11T06:33:22;100970.09;;;14.99;95.99
3444;BME280;1736;52.068;6.968;2023-05-11T06:35:50;100972.06;;;14.97;96.16
3444;BME280;1736;52.068;6.968;2023-05-11T06:38:17;100969.47;;;15.05;94.35
3444;BME280;1736;52.068;6.968;2023-05-11T06:40:43;100970.16;;;15.07;93.98
3444;BME280;1736;52.068;6.968;2023-05-11T06:43:10;100969.09;;;15.00;94.48
3444;BME280;1736;52.068;6.968;2023-05-11T06:45:36;100976.31;;;15.17;94.62
3444;BME280;1736;52.068;6.968;2023-05-11T06:48:03;100976.84;;;15.20;94.28
3444;BME280;1736;52.068;6.968;2023-05-11T06:50:30;100972.72;;;15.26;95.00
3444;BME280;1736;52.068;6.968;2023-05-11T06:52:59;100978.69;;;15.20;94.77
3444;BME280;1736;52.068;6.968;2023-05-11T06:55:26;100984.31;;;15.44;94.83
3444;BME280;1736;52.068;6.968;2023-05-11T06:57:52;100975.81;;;15.49;92.78
3444;BME280;1736;52.068;6.968;2023-05-11T07:00:22;100971.63;;;15.64;93.35
3444;BME280;1736;52.068;6.968;2023-05-11T07:02:49;100986.38;;;15.68;92.33
3444;BME280;1736;52.068;6.968;2023-05-11T07:05:15;100978.88;;;15.71;93.20
3444;BME280;1736;52.068;6.968;2023-05-11T07:07:42;100982.81;;;16.02;90.98
3444;BME280;1736;52.068;6.968;2023-05-11T07:10:12;100985.94;;;16.15;87.47
3444;BME280;1736;52.068;6.968;2023-05-11T07:12:39;100987.47;;;16.00;87.34
3444;BME280;1736;52.068;6.968;2023-05-11T07:15:07;100989.50;;;15.81;86.93
3444;BME280;1736;52.068;6.968;2023-05-11T07:17:33;100987.47;;;16.00;87.26
3444;BME280;1736;52.068;6.968;2023-05-11T07:20:00;100987.81;;;15.97;87.29
3444;BME280;1736;52.068;6.968;2023-05-11T07:22:27;100986.31;;;16.03;87.94
3444;BME280;1736;52.068;6.968;2023-05-11T07:24:55;100990.50;;;16.23;84.50
3444;BME280;1736;52.068;6.968;2023-05-11T07:27:23;100999.78;;;16.11;84.23
3444;BME280;1736;52.068;6.968;2023-05-11T07:29:50;100992.22;;;16.06;84.41
3444;BME280;1736;52.068;6.968;2023-05-11T07:32:16;100991.16;;;15.99;83.60
3444;BME280;1736;52.068;6.968;2023-05-11T07:34:43;100988.16;;;16.20;85.61
3444;BME280;1736;52.068;6.968;2023-05-11T07:37:10;100989.94;;;16.37;85.40
3444;BME280;1736;52.068;6.968;2023-05-11T07:39:36;100997.53;;;16.75;86.05
3444;BME280;1736;52.068;6.968;2023-05-11T07:42:03;100986.03;;;16.82;84.40
3444;BME280;1736;52.068;6.968;2023-05-11T07:44:31;100995.50;;;16.69;83.40
3444;BME280;1736;52.068;6.968;2023-05-11T07:46:58;100992.63;;;16.62;84.47
3444;BME280;1736;52.068;6.968;2023-05-11T07:49:24;100997.13;;;16.95;84.40
3444;BME280;1736;52.068;6.968;2023-05-11T07:51:51;100990.09;;;16.94;83.13
3444;BME280;1736;52.068;6.968;2023-05-11T07:54:17;100992.97;;;17.01;81.16
3444;BME280;1736;52.068;6.968;2023-05-11T07:56:44;101001.16;;;16.91;79.89
3444;BME280;1736;52.068;6.968;2023-05-11T07:59:11;100995.78;;;16.91;80.12
3444;BME280;1736;52.068;6.968;2023-05-11T08:01:39;100997.00;;;17.05;79.49
3444;BME280;1736;52.068;6.968;2023-05-11T08:04:05;100994.06;;;16.82;78.22
3444;BME280;1736;52.068;6.968;2023-05-11T08:06:32;100998.16;;;17.02;77.94
3444;BME280;1736;52.068;6.968;2023-05-11T08:08:59;100999.13;;;16.93;80.63
3444;BME280;1736;52.068;6.968;2023-05-11T08:11:25;100996.09;;;16.88;82.13
3444;BME280;1736;52.068;6.968;2023-05-11T08:13:52;100997.06;;;16.79;82.69
3444;BME280;1736;52.068;6.968;2023-05-11T08:16:19;101000.22;;;16.75;82.43
3444;BME280;1736;52.068;6.968;2023-05-11T08:18:47;100999.00;;;16.69;83.52
3444;BME280;1736;52.068;6.968;2023-05-11T08:21:14;100995.25;;;16.88;82.41
3444;BME280;1736;52.068;6.968;2023-05-11T08:23:40;101001.03;;;17.01;80.77
3444;BME280;1736;52.068;6.968;2023-05-11T08:26:07;101006.75;;;16.72;81.00
3444;BME280;1736;52.068;6.968;2023-05-11T08:28:34;100998.97;;;16.61;81.71
3444;BME280;1736;52.068;6.968;2023-05-11T08:31:00;101002.81;;;16.92;82.40
3444;BME280;1736;52.068;6.968;2023-05-11T08:33:27;101005.94;;;16.80;81.24
3444;BME280;1736;52.068;6.968;2023-05-11T08:35:55;101003.13;;;16.89;81.24
3444;BME280;1736;52.068;6.968;2023-05-11T08:38:21;101010.94;;;16.75;82.41
3444;BME280;1736;52.068;6.968;2023-05-11T08:40:49;101012.41;;;16.69;81.40
3444;BME280;1736;52.068;6.968;2023-05-11T08:43:17;101000.56;;;16.46;82.13
3444;BME280;1736;52.068;6.968;2023-05-11T08:45:45;101003.41;;;16.70;82.02
3444;BME280;1736;52.068;6.968;2023-05-11T08:48:13;101003.31;;;16.96;81.84
3444;BME280;1736;52.068;6.968;2023-05-11T08:50:42;101009.28;;;17.15;81.50
3444;BME280;1736;52.068;6.968;2023-05-11T08:53:10;101010.22;;;17.06;79.33
3444;BME280;1736;52.068;6.968;2023-05-11T08:55:37;101007.31;;;17.33;78.43
3444;BME280;1736;52.068;6.968;2023-05-11T08:58:05;101013.47;;;17.18;79.35
3444;BME280;1736;52.068;6.968;2023-05-11T09:00:32;101012.03;;;17.39;77.75
3444;BME280;1736;52.068;6.968;2023-05-11T09:02:59;101007.25;;;17.59;76.78
3444;BME280;1736;52.068;6.968;2023-05-11T09:05:26;101014.50;;;17.33;75.11
3444;BME280;1736;52.068;6.968;2023-05-11T09:07:56;101016.78;;;17.53;75.09
3444;BME280;1736;52.068;6.968;2023-05-11T09:10:26;101002.91;;;17.74;74.30
3444;BME280;1736;52.068;6.968;2023-05-11T09:12:52;101012.97;;;17.80;73.21
3444;BME280;1736;52.068;6.968;2023-05-11T09:15:19;101005.94;;;17.87;72.55
3444;BME280;1736;52.068;6.968;2023-05-11T09:17:46;101004.69;;;17.41;73.06
3444;BME280;1736;52.068;6.968;2023-05-11T09:20:16;100999.03;;;17.68;72.31
3444;BME280;1736;52.068;6.968;2023-05-11T09:22:50;101009.13;;;17.98;73.66
3444;BME280;1736;52.068;6.968;2023-05-11T09:25:18;101005.41;;;18.31;70.39
3444;BME280;1736;52.068;6.968;2023-05-11T09:27:46;101008.78;;;18.41;71.07
3444;BME280;1736;52.068;6.968;2023-05-11T09:30:15;101005.22;;;18.57;71.54
3444;BME280;1736;52.068;6.968;2023-05-11T09:32:48;101004.19;;;18.66;70.94
3444;BME280;1736;52.068;6.968;2023-05-11T09:35:22;100992.97;;;18.46;66.68
3444;BME280;1736;52.068;6.968;2023-05-11T09:37:57;100997.63;;;18.68;67.95
3444;BME280;1736;52.068;6.968;2023-05-11T09:40:24;100999.47;;;19.14;67.22
3444;BME280;1736;52.068;6.968;2023-05-11T09:42:52;100996.66;;;19.08;67.12
3444;BME280;1736;52.068;6.968;2023-05-11T09:45:39;100997.41;;;18.86;66.76
3444;BME280;1736;52.068;6.968;2023-05-11T09:48:13;100993.47;;;18.50;68.13
3444;BME280;1736;52.068;6.968;2023-05-11T09:50:50;100993.50;;;18.88;67.69
3444;BME280;1736;52.068;6.968;2023-05-11T09:53:17;100996.50;;;18.93;67.71
3444;BME280;1736;52.068;6.968;2023-05-11T09:55:50;100988.91;;;19.05;66.67
3444;BME280;1736;52.068;6.968;2023-05-11T09:58:18;100994.75;;;18.70;67.80
3444;BME280;1736;52.068;6.968;2023-05-11T10:00:47;100994.63;;;18.63;67.20
3444;BME280;1736;52.068;6.968;2023-05-11T10:03:15;100997.69;;;18.36;70.55
3444;BME280;1736;52.068;6.968;2023-05-11T10:05:54;100997.69;;;18.36;72.15
3444;BME280;1736;52.068;6.968;2023-05-11T10:08:26;100989.28;;;18.15;73.51
3444;BME280;1736;52.068;6.968;2023-05-11T10:10:54;100996.00;;;17.87;73.88
3444;BME280;1736;52.068;6.968;2023-05-11T10:13:22;100997.19;;;18.01;73.53
3444;BME280;1736;52.068;6.968;2023-05-11T10:15:50;100987.78;;;17.89;74.98
3444;BME280;1736;52.068;6.968;2023-05-11T10:18:18;100992.00;;;17.91;73.44
3444;BME280;1736;52.068;6.968;2023-05-11T10:20:44;100990.66;;;17.87;73.00
3444;BME280;1736;52.068;6.968;2023-05-11T10:23:11;100992.34;;;18.04;69.17
3444;BME280;1736;52.068;6.968;2023-05-11T10:25:39;101000.22;;;18.38;66.97
3444;BME280;1736;52.068;6.968;2023-05-11T10:28:06;101003.72;;;18.30;66.08
3444;BME280;1736;52.068;6.968;2023-05-11T10:30:35;100998.84;;;18.18;66.94
3444;BME280;1736;52.068;6.968;2023-05-11T10:33:09;100994.34;;;17.94;69.05
3444;BME280;1736;52.068;6.968;2023-05-11T10:35:37;100992.00;;;17.99;66.89
3444;BME280;1736;52.068;6.968;2023-05-11T10:38:05;100990.16;;;17.84;67.89
3444;BME280;1736;52.068;6.968;2023-05-11T10:40:34;100996.69;;;18.05;67.85
3444;BME280;1736;52.068;6.968;2023-05-11T10:43:30;100996.88;;;18.04;68.60
3444;BME280;1736;52.068;6.968;2023-05-11T10:46:11;100984.75;;;18.32;68.61
3444;BME280;1736;52.068;6.968;2023-05-11T10:48:53;100998.19;;;18.16;66.54
3444;BME280;1736;52.068;6.968;2023-05-11T10:51:37;100993.50;;;18.10;65.88
3444;BME280;1736;52.068;6.968;2023-05-11T10:54:20;100998.53;;;18.21;66.95
3444;BME280;1736;52.068;6.968;2023-05-11T10:57:03;100993.69;;;18.24;65.44
3444;BME280;1736;52.068;6.968;2023-05-11T10:59:48;101005.41;;;18.31;65.45
3444;BME280;1736;52.068;6.968;2023-05-11T11:02:22;101002.56;;;18.17;65.91
3444;BME280;1736;52.068;6.968;2023-05-11T11:04:50;100994.81;;;18.22;67.70
3444;BME280;1736;52.068;6.968;2023-05-11T11:07:17;100997.34;;;18.23;67.64
3444;BME280;1736;52.068;6.968;2023-05-11T11:09:53;100999.72;;;18.34;68.96
3444;BME280;1736;52.068;6.968;2023-05-11T11:12:20;100998.84;;;18.50;70.43
3444;BME280;1736;52.068;6.968;2023-05-11T11:14:56;101003.50;;;18.72;71.28
3444;BME280;1736;52.068;6.968;2023-05-11T11:17:25;100993.16;;;18.45;71.76
3444;BME280;1736;52.068;6.968;2023-05-11T11:19:53;100991.00;;;18.16;72.67
3444;BME280;1736;52.068;6.968;2023-05-11T11:22:42;100994.16;;;18.28;73.12
3444;BME280;1736;52.068;6.968;2023-05-11T11:25:11;100998.34;;;18.46;73.51
3444;BME280;1736;52.068;6.968;2023-05-11T11:27:55;101000.03;;;17.91;74.31
3444;BME280;1736;52.068;6.968;2023-05-11T11:30:29;100996.00;;;17.71;76.48
3444;BME280;1736;52.068;6.968;2023-05-11T11:33:31;100996.84;;;17.64;78.55
3444;BME280;1736;52.068;6.968;2023-05-11T11:35:58;100986.03;;;17.40;78.61
3444;BME280;1736;52.068;6.968;2023-05-11T11:38:26;100990.97;;;17.60;77.74
3444;BME280;1736;52.068;6.968;2023-05-11T11:40:52;100995.50;;;17.68;77.52
3444;BME280;1736;52.068;6.968;2023-05-11T11:43:20;100994.16;;;17.64;76.55
3444;BME280;1736;52.068;6.968;2023-05-11T11:45:51;100992.34;;;17.88;75.18
3444;BME280;1736;52.068;6.968;2023-05-11T11:48:27;100994.00;;;17.81;71.93
3444;BME280;1736;52.068;6.968;2023-05-11T11:51:07;100995.03;;;18.04;70.07
3444;BME280;1736;52.068;6.968;2023-05-11T11:54:04;101003.25;;;17.87;68.88
3444;BME280;1736;52.068;6.968;2023-05-11T11:56:42;101013.47;;;17.99;69.90
3444;BME280;1736;52.068;6.968;2023-05-11T11:59:10;101006.25;;;17.84;68.48
3444;BME280;1736;52.068;6.968;2023-05-11T12:01:38;101005.78;;;17.80;68.75
3444;BME280;1736;52.068;6.968;2023-05-11T12:04:38;100997.72;;;17.88;68.96
3444;BME280;1736;52.068;6.968;2023-05-11T12:07:08;100998.38;;;17.90;69.60
3444;BME280;1736;52.068;6.968;2023-05-11T12:09:45;100996.84;;;17.72;70.15
3444;BME280;1736;52.068;6.968;2023-05-11T12:12:11;100996.00;;;17.87;71.71
3444;BME280;1736;52.068;6.968;2023-05-11T12:14:39;100998.03;;;17.93;71.08
3444;BME280;1736;52.068;6.968;2023-05-11T12:17:13;100994.66;;;17.99;71.30
3444;BME280;1736;52.068;6.968;2023-05-11T12:19:41;100997.03;;;18.02;71.86
3444;BME280;1736;52.068;6.968;2023-05-11T12:22:10;100997.88;;;18.11;71.61
3444;BME280;1736;52.068;6.968;2023-05-11T12:24:39;100999.38;;;18.29;71.58
3444;BME280;1736;52.068;6.968;2023-05-11T12:27:06;100988.97;;;18.34;71.22
3444;BME280;1736;52.068;6.968;2023-05-11T12:29:33;100995.34;;;18.25;71.78
3444;BME280;1736;52.068;6.968;2023-05-11T12:32:00;100985.09;;;18.29;72.46
3444;BME280;1736;52.068;6.968;2023-05-11T12:34:26;100982.25;;;18.46;73.27
3444;BME280;1736;52.068;6.968;2023-05-11T12:36:53;100981.06;;;18.41;72.56
3444;BME280;1736;52.068;6.968;2023-05-11T12:39:23;100985.78;;;18.23;72.80
3444;BME280;1736;52.068;6.968;2023-05-11T12:41:52;100985.41;;;18.26;73.44
3444;BME280;1736;52.068;6.968;2023-05-11T12:44:21;100983.09;;;18.47;72.34
3444;BME280;1736;52.068;6.968;2023-05-11T12:46:48;100978.72;;;18.22;72.34
3444;BME280;1736;52.068;6.968;2023-05-11T12:49:16;100973.16;;;18.31;71.59
3444;BME280;1736;52.068;6.968;2023-05-11T12:51:47;100967.66;;;18.17;72.73
3444;BME280;1736;52.068;6.968;2023-05-11T12:54:32;100975.53;;;18.42;70.01
3444;BME280;1736;52.068;6.968;2023-05-11T12:57:01;100977.41;;;18.80;70.18
3444;BME280;1736;52.068;6.968;2023-05-11T12:59:42;100979.38;;;18.94;69.82
3444;BME280;1736;52.068;6.968;2023-05-11T13:02:16;100975.59;;;19.11;69.29
3444;BME280;1736;52.068;6.968;2023-05-11T13:04:44;100977.22;;;19.20;70.23
3444;BME280;1736;52.068;6.968;2023-05-11T13:07:23;100981.13;;;19.48;69.41
3444;BME280;1736;52.068;6.968;2023-05-11T13:09:57;100978.59;;;19.16;68.73
3444;BME280;1736;52.068;6.968;2023-05-11T13:12:24;100962.41;;;19.32;67.31
3444;BME280;1736;52.068;6.968;2023-05-11T13:15:04;100975.22;;;19.22;68.23
3444;BME280;1736;52.068;6.968;2023-05-11T13:17:35;100975.34;;;19.37;66.88
3444;BME280;1736;52.068;6.968;2023-05-11T13:20:18;100965.66;;;19.20;67.12